Time;durP1;ratioP1;P1;durP2;ratioP2;P2;SDS_P1;SDS_P2;PMS_P1;PMS_P2;Temp;Humidity;BMP_temperature;BMP_pressure;BME280_temperature;BME280_humidity;BME280_pressure;Samples;Min_cycle;Max_cycle;Signal;HPM_P1;HPM_P2
2024/03/20 00:00:11;;;;;;;131.52;66.00;;;;;;;;;;4997509;28;20024;-89
2024/03/20 00:02:37;;;;;;;302.42;122.13;;;;;;;;;;4997473;28;20475;-90
2024/03/20 00:05:05;;;;;;;386.38;153.30;;;;;;;;;;5012352;28;20475;-89
2024/03/20 00:07:31;;;;;;;265.65;105.18;;;;;;;;;;4977480;28;20041;-88
2024/03/20 00:09:57;;;;;;;371.25;147.38;;;;;;;;;;4978578;28;20050;-90
2024/03/20 00:12:23;;;;;;;216.95;91.82;;;;;;;;;;4983244;28;20030;-90
2024/03/20 00:14:49;;;;;;;125.72;64.20;;;;;;;;;;4997010;28;20029;-90
2024/03/20 00:17:16;;;;;;;289.67;103.43;;;;;;;;;;4996981;28;20038;-90
2024/03/20 00:19:42;;;;;;;507.27;195.45;;;;;;;;;;4997046;28;20022;-89
2024/03/20 00:22:09;;;;;;;466.65;186.73;;;;;;;;;;4997033;28;20080;-90
2024/03/20 00:24:35;;;;;;;154.48;69.15;;;;;;;;;;4997181;28;20033;-88
2024/03/20 00:27:01;;;;;;;189.85;83.40;;;;;;;;;;4997119;28;20025;-90
2024/03/20 00:29:27;;;;;;;103.55;51.05;;;;;;;;;;4997294;28;20034;-90
2024/03/20 00:31:56;;;;;;;62.72;39.47;;;;;;;;;;4997156;28;20030;-89
2024/03/20 00:34:22;;;;;;;50.47;38.58;;;;;;;;;;4996875;28;20363;-90
2024/03/20 00:36:49;;;;;;;67.10;39.83;;;;;;;;;;4996848;28;20022;-90
2024/03/20 00:39:15;;;;;;;231.43;87.95;;;;;;;;;;4997044;28;20026;-90
2024/03/20 00:41:41;;;;;;;200.60;79.15;;;;;;;;;;4997323;28;20026;-90
2024/03/20 00:44:07;;;;;;;255.65;87.32;;;;;;;;;;5006013;28;20026;-90
2024/03/20 00:46:33;;;;;;;266.85;88.63;;;;;;;;;;5016147;28;20014;-88
2024/03/20 00:48:59;;;;;;;310.25;101.82;;;;;;;;;;5006765;28;20041;-90
2024/03/20 00:51:26;;;;;;;144.25;58.50;;;;;;;;;;5007891;28;20025;-87
2024/03/20 00:53:52;;;;;;;116.28;52.42;;;;;;;;;;4997109;28;20092;-90
2024/03/20 00:56:18;;;;;;;97.57;50.00;;;;;;;;;;4981324;28;20026;-89
2024/03/20 00:58:44;;;;;;;60.45;35.63;;;;;;;;;;4981546;28;20045;-89
2024/03/20 01:01:11;;;;;;;73.63;36.70;;;;;;;;;;4996666;28;20049;-90
2024/03/20 01:03:38;;;;;;;90.80;42.70;;;;;;;;;;4981585;28;20125;-89
2024/03/20 01:06:04;;;;;;;129.95;51.58;;;;;;;;;;4993612;28;20007;-90
2024/03/20 01:08:30;;;;;;;100.30;43.55;;;;;;;;;;5021504;28;20041;-89
2024/03/20 01:10:56;;;;;;;84.85;35.85;;;;;;;;;;5008078;28;20096;-88
2024/03/20 01:13:23;;;;;;;71.50;32.30;;;;;;;;;;5000978;28;20029;-90
2024/03/20 01:15:52;;;;;;;62.45;31.30;;;;;;;;;;4985096;28;20087;-90
2024/03/20 01:18:18;;;;;;;60.80;32.35;;;;;;;;;;4981132;28;20034;-90
2024/03/20 01:20:44;;;;;;;52.53;29.40;;;;;;;;;;4980861;28;20061;-90
2024/03/20 01:23:10;;;;;;;58.60;31.60;;;;;;;;;;4980668;28;20028;-89
2024/03/20 01:25:37;;;;;;;56.17;29.38;;;;;;;;;;4998069;28;20105;-90
2024/03/20 01:28:03;;;;;;;56.10;30.92;;;;;;;;;;4980758;28;20030;-89
2024/03/20 01:30:30;;;;;;;54.72;30.10;;;;;;;;;;4980831;28;20026;-89
2024/03/20 01:32:56;;;;;;;51.63;26.02;;;;;;;;;;4980603;28;20036;-90
2024/03/20 01:35:23;;;;;;;47.13;26.92;;;;;;;;;;4980322;28;20032;-89
2024/03/20 01:37:50;;;;;;;52.22;26.25;;;;;;;;;;4980406;28;20070;-91
2024/03/20 01:40:16;;;;;;;49.80;28.58;;;;;;;;;;4980358;28;20494;-91
2024/03/20 01:42:42;;;;;;;57.83;30.40;;;;;;;;;;4980635;28;20062;-90
2024/03/20 01:45:13;;;;;;;49.58;27.90;;;;;;;;;;4980769;28;20420;-91
2024/03/20 01:47:40;;;;;;;45.33;25.65;;;;;;;;;;4980551;28;20559;-90
2024/03/20 01:50:39;;;;;;;;;;;;;;;;;;;;;
2024/03/20 01:53:06;;;;;;;143.20;59.55;;;;;;;;;;4931088;28;20064;-92
2024/03/20 01:55:32;;;;;;;91.75;41.90;;;;;;;;;;4980688;28;20052;-90
2024/03/20 01:57:58;;;;;;;92.13;42.25;;;;;;;;;;4980168;28;20034;-91
2024/03/20 02:00:27;;;;;;;68.05;36.00;;;;;;;;;;4980115;28;20464;-92
2024/03/20 02:03:03;;;;;;;109.78;48.78;;;;;;;;;;4980485;28;20069;-91
2024/03/20 02:05:30;;;;;;;69.40;32.95;;;;;;;;;;4980303;28;20161;-90
2024/03/20 02:07:56;;;;;;;62.72;31.15;;;;;;;;;;4980001;28;20387;-92
2024/03/20 02:10:23;;;;;;;64.70;31.08;;;;;;;;;;4992204;28;20038;-92
2024/03/20 02:13:00;;;;;;;84.20;40.10;;;;;;;;;;4999760;28;20467;-91
2024/03/20 02:15:29;;;;;;;101.70;43.05;;;;;;;;;;4999311;28;20437;-90
2024/03/20 02:17:56;;;;;;;85.70;38.42;;;;;;;;;;4991292;28;20038;-91
2024/03/20 02:20:23;;;;;;;130.00;49.60;;;;;;;;;;5000779;28;20097;-89
2024/03/20 02:22:49;;;;;;;104.32;39.88;;;;;;;;;;5001332;28;20050;-92
2024/03/20 02:25:15;;;;;;;93.82;40.83;;;;;;;;;;4999334;28;20022;-92
2024/03/20 02:27:41;;;;;;;105.85;43.97;;;;;;;;;;4999176;28;20117;-91
2024/03/20 02:30:09;;;;;;;99.10;45.92;;;;;;;;;;4999214;28;20018;-91
2024/03/20 02:32:38;;;;;;;85.22;41.28;;;;;;;;;;4999093;28;20474;-92
2024/03/20 02:35:05;;;;;;;82.70;45.25;;;;;;;;;;4998859;28;20074;-91
2024/03/20 02:37:31;;;;;;;82.38;38.10;;;;;;;;;;4998538;28;20509;-91
2024/03/20 02:39:58;;;;;;;79.97;39.10;;;;;;;;;;5016337;28;20054;-91
2024/03/20 02:42:24;;;;;;;78.80;36.67;;;;;;;;;;4998650;28;20109;-91
2024/03/20 02:44:51;;;;;;;97.68;46.50;;;;;;;;;;4998703;28;20030;-91
2024/03/20 02:47:18;;;;;;;98.45;49.55;;;;;;;;;;4998616;28;20130;-92
2024/03/20 02:49:46;;;;;;;114.55;58.30;;;;;;;;;;4998463;28;20021;-91
2024/03/20 02:52:12;;;;;;;102.88;53.05;;;;;;;;;;5009330;28;20014;-91
2024/03/20 02:54:38;;;;;;;86.63;47.78;;;;;;;;;;5009960;28;20014;-91
2024/03/20 02:57:04;;;;;;;82.13;43.83;;;;;;;;;;4983333;28;20084;-91
2024/03/20 02:59:31;;;;;;;79.97;42.47;;;;;;;;;;4986117;28;20037;-91
2024/03/20 03:01:57;;;;;;;78.15;42.05;;;;;;;;;;4998284;28;20534;-91
2024/03/20 03:04:23;;;;;;;73.25;39.63;;;;;;;;;;4998367;28;20482;-92
2024/03/20 03:06:52;;;;;;;75.25;41.30;;;;;;;;;;4997237;28;20034;-91
2024/03/20 03:09:19;;;;;;;72.97;38.45;;;;;;;;;;4978799;28;20050;-90
2024/03/20 03:11:46;;;;;;;83.57;44.70;;;;;;;;;;4979202;28;20113;-91
2024/03/20 03:14:13;;;;;;;65.72;36.20;;;;;;;;;;4977632;28;20039;-91
2024/03/20 03:16:39;;;;;;;66.22;35.40;;;;;;;;;;4978905;28;20053;-90
2024/03/20 03:19:06;;;;;;;71.68;36.42;;;;;;;;;;4979030;28;20026;-92
2024/03/20 03:21:32;;;;;;;81.28;38.65;;;;;;;;;;4978683;28;20033;-92
2024/03/20 03:23:58;;;;;;;66.32;36.17;;;;;;;;;;4978777;28;20034;-91
2024/03/20 03:26:25;;;;;;;77.65;40.42;;;;;;;;;;4978669;28;20019;-90
2024/03/20 03:28:51;;;;;;;70.45;37.08;;;;;;;;;;4978432;28;20070;-91
2024/03/20 03:31:17;;;;;;;72.38;39.88;;;;;;;;;;4978177;28;20034;-91
2024/03/20 03:33:44;;;;;;;71.82;38.47;;;;;;;;;;4978784;28;20025;-90
2024/03/20 03:36:10;;;;;;;67.13;35.78;;;;;;;;;;4978601;28;20104;-92
2024/03/20 03:38:36;;;;;;;72.88;36.63;;;;;;;;;;4988677;28;20509;-92
2024/03/20 03:41:03;;;;;;;58.45;33.08;;;;;;;;;;4997641;28;20030;-91
2024/03/20 03:43:29;;;;;;;70.22;36.90;;;;;;;;;;4997699;28;20034;-92
2024/03/20 03:45:56;;;;;;;95.65;46.40;;;;;;;;;;5015228;28;20033;-91
2024/03/20 03:48:22;;;;;;;104.90;46.13;;;;;;;;;;4999644;28;20034;-88
2024/03/20 03:50:48;;;;;;;75.68;39.40;;;;;;;;;;4980711;28;20030;-92
2024/03/20 03:53:14;;;;;;;72.50;37.50;;;;;;;;;;4978374;28;20062;-91
2024/03/20 03:55:40;;;;;;;154.07;62.75;;;;;;;;;;4978126;28;20026;-91
2024/03/20 03:58:10;;;;;;;273.70;102.78;;;;;;;;;;4978035;28;20030;-92
2024/03/20 04:00:36;;;;;;;172.82;71.55;;;;;;;;;;4985783;28;20036;-91
2024/03/20 04:03:03;;;;;;;148.30;60.70;;;;;;;;;;4986523;28;20041;-92
2024/03/20 04:05:31;;;;;;;127.85;51.88;;;;;;;;;;4985097;28;20077;-91
2024/03/20 04:07:57;;;;;;;94.72;42.65;;;;;;;;;;5001599;28;20057;-91
2024/03/20 04:10:24;;;;;;;69.45;34.42;;;;;;;;;;5007302;28;20041;-90
2024/03/20 04:12:50;;;;;;;48.22;25.45;;;;;;;;;;5008236;28;20033;-91
2024/03/20 04:15:17;;;;;;;46.53;25.20;;;;;;;;;;4983428;28;20038;-92
2024/03/20 04:17:43;;;;;;;47.75;26.20;;;;;;;;;;4986493;28;20106;-93
2024/03/20 04:20:19;;;;;;;47.70;26.95;;;;;;;;;;5014256;28;20038;-92
2024/03/20 04:22:47;;;;;;;45.67;25.10;;;;;;;;;;4997238;28;20088;-92
2024/03/20 04:25:13;;;;;;;46.13;25.13;;;;;;;;;;4997107;28;20112;-92
2024/03/20 04:27:41;;;;;;;50.13;26.58;;;;;;;;;;4984629;28;20062;-91
2024/03/20 04:30:07;;;;;;;47.42;26.75;;;;;;;;;;4977428;28;20035;-91
2024/03/20 04:32:34;;;;;;;50.28;26.55;;;;;;;;;;4974867;28;20034;-92
2024/03/20 04:35:00;;;;;;;56.03;30.80;;;;;;;;;;4977820;28;20030;-92
2024/03/20 04:37:27;;;;;;;71.10;34.58;;;;;;;;;;4977844;28;20125;-90
2024/03/20 04:39:53;;;;;;;85.13;43.15;;;;;;;;;;5007699;28;20023;-89
2024/03/20 04:42:19;;;;;;;99.85;46.08;;;;;;;;;;4999848;28;20022;-90
2024/03/20 04:44:46;;;;;;;105.28;46.05;;;;;;;;;;4978814;28;20081;-90
2024/03/20 04:47:13;;;;;;;73.78;38.70;;;;;;;;;;4977721;28;20031;-92
2024/03/20 04:49:39;;;;;;;65.78;33.78;;;;;;;;;;4979065;28;20026;-92
2024/03/20 04:52:06;;;;;;;59.17;29.77;;;;;;;;;;4996955;28;20053;-90
2024/03/20 04:54:35;;;;;;;55.70;27.98;;;;;;;;;;4997122;28;20055;-92
2024/03/20 04:57:01;;;;;;;64.75;31.30;;;;;;;;;;4996955;28;20041;-90
2024/03/20 04:59:27;;;;;;;65.45;29.95;;;;;;;;;;4988729;28;20506;-91
2024/03/20 05:01:53;;;;;;;96.63;43.15;;;;;;;;;;5014716;28;20154;-91
2024/03/20 05:04:19;;;;;;;81.30;40.22;;;;;;;;;;4991806;28;20476;-89
2024/03/20 05:06:46;;;;;;;91.47;43.38;;;;;;;;;;4985729;28;20029;-91
2024/03/20 05:09:12;;;;;;;90.70;47.88;;;;;;;;;;4980961;28;20058;-91
2024/03/20 05:11:38;;;;;;;92.72;52.92;;;;;;;;;;4984425;28;20038;-91
2024/03/20 05:14:05;;;;;;;99.25;62.63;;;;;;;;;;4978615;28;20053;-90
2024/03/20 05:16:31;;;;;;;116.53;68.63;;;;;;;;;;4981174;28;20026;-88
2024/03/20 05:18:57;;;;;;;115.30;75.03;;;;;;;;;;4981784;28;20492;-89
2024/03/20 05:21:24;;;;;;;127.63;87.63;;;;;;;;;;4977588;28;20022;-91
2024/03/20 05:23:50;;;;;;;125.68;84.78;;;;;;;;;;4979696;28;20038;-91
2024/03/20 05:26:16;;;;;;;117.15;88.68;;;;;;;;;;4977994;28;20042;-91
2024/03/20 05:28:44;;;;;;;121.47;88.90;;;;;;;;;;4992635;28;20414;-90
2024/03/20 05:31:25;;;;;;;110.70;86.07;;;;;;;;;;4976962;28;20034;-89
2024/03/20 05:33:51;;;;;;;111.32;83.97;;;;;;;;;;4981796;28;20030;-89
2024/03/20 05:36:18;;;;;;;104.10;83.25;;;;;;;;;;4998262;28;20468;-89
2024/03/20 05:38:44;;;;;;;86.07;76.50;;;;;;;;;;4983486;28;20038;-90
2024/03/20 05:41:10;;;;;;;87.10;69.55;;;;;;;;;;4980924;28;20027;-89
2024/03/20 05:43:36;;;;;;;63.45;47.20;;;;;;;;;;4984723;28;20056;-88
2024/03/20 05:46:03;;;;;;;44.80;26.60;;;;;;;;;;5000740;28;20021;-89
2024/03/20 05:48:30;;;;;;;51.70;35.55;;;;;;;;;;4985105;28;20046;-91
2024/03/20 05:50:56;;;;;;;79.32;72.20;;;;;;;;;;4980191;28;20088;-90
2024/03/20 05:53:23;;;;;;;45.45;32.97;;;;;;;;;;4981930;28;20030;-90
2024/03/20 05:55:50;;;;;;;50.65;27.83;;;;;;;;;;4982638;28;20030;-90
2024/03/20 05:58:25;;;;;;;51.35;32.05;;;;;;;;;;4982400;28;20031;-91
2024/03/20 06:00:52;;;;;;;52.65;40.47;;;;;;;;;;4981759;28;20497;-90
2024/03/20 06:03:18;;;;;;;54.30;45.83;;;;;;;;;;4982214;28;20065;-89
2024/03/20 06:05:44;;;;;;;57.55;50.08;;;;;;;;;;4980776;28;20034;-90
2024/03/20 06:11:42;;;;;;;68.40;61.45;;;;;;;;;;5018852;28;20629;-89
2024/03/20 06:14:08;;;;;;;74.10;66.70;;;;;;;;;;4999687;28;20141;-90
2024/03/20 06:16:34;;;;;;;77.65;70.03;;;;;;;;;;5000047;28;20489;-91
2024/03/20 06:19:00;;;;;;;67.75;61.33;;;;;;;;;;4999606;28;20041;-91
2024/03/20 06:21:26;;;;;;;65.80;59.17;;;;;;;;;;4999950;28;20052;-93
2024/03/20 06:23:52;;;;;;;55.35;49.88;;;;;;;;;;4999523;28;20029;-92
2024/03/20 06:26:20;;;;;;;53.92;48.90;;;;;;;;;;5004821;28;20010;-92
2024/03/20 06:28:46;;;;;;;53.00;48.05;;;;;;;;;;5007120;28;20045;-92
2024/03/20 06:31:15;;;;;;;53.70;48.20;;;;;;;;;;4987863;28;20089;-89
2024/03/20 06:33:49;;;;;;;50.28;45.10;;;;;;;;;;4998571;28;20031;-90
2024/03/20 06:36:30;;;;;;;50.45;45.45;;;;;;;;;;4988761;28;20518;-88
2024/03/20 06:38:58;;;;;;;45.10;40.38;;;;;;;;;;5003767;28;20049;-89
2024/03/20 06:41:30;;;;;;;41.97;37.65;;;;;;;;;;5000131;28;20081;-89
2024/03/20 06:44:14;;;;;;;32.77;29.40;;;;;;;;;;5002567;28;20033;-88
2024/03/20 06:46:52;;;;;;;29.02;25.98;;;;;;;;;;5000428;28;20022;-91
2024/03/20 06:49:25;;;;;;;27.55;23.30;;;;;;;;;;5017207;28;20034;-94
2024/03/20 06:51:59;;;;;;;23.40;19.83;;;;;;;;;;5012938;28;20529;-88
2024/03/20 06:54:28;;;;;;;24.92;22.08;;;;;;;;;;4998945;28;20029;-89
2024/03/20 06:57:03;;;;;;;27.15;22.50;;;;;;;;;;4998414;28;20026;-90
2024/03/20 06:59:33;;;;;;;21.88;18.80;;;;;;;;;;4982934;28;20026;-89
2024/03/20 07:02:19;;;;;;;24.58;19.50;;;;;;;;;;4978975;28;20550;-92
2024/03/20 07:05:14;;;;;;;21.52;18.52;;;;;;;;;;4982652;28;20108;-91
2024/03/20 07:07:41;;;;;;;23.23;19.58;;;;;;;;;;4981722;28;20058;-89
2024/03/20 07:10:11;;;;;;;21.73;19.23;;;;;;;;;;4979995;28;20042;-90
2024/03/20 07:12:43;;;;;;;26.77;20.48;;;;;;;;;;4972570;28;20441;-88
2024/03/20 07:15:18;;;;;;;20.53;18.27;;;;;;;;;;4960035;28;20038;-88
2024/03/20 07:17:45;;;;;;;21.33;18.98;;;;;;;;;;4960195;28;20035;-90
2024/03/20 07:20:12;;;;;;;19.15;17.05;;;;;;;;;;4963306;28;20468;-89
2024/03/20 07:22:38;;;;;;;18.00;15.82;;;;;;;;;;4964428;28;20418;-88
2024/03/20 07:25:09;;;;;;;18.20;16.30;;;;;;;;;;4990177;28;20494;-88
2024/03/20 07:27:41;;;;;;;17.40;15.13;;;;;;;;;;4998880;28;20029;-90
2024/03/20 07:30:39;;;;;;;21.48;17.35;;;;;;;;;;5008251;28;20117;-93
2024/03/20 07:33:59;;;;;;;16.88;15.07;;;;;;;;;;5000282;28;20029;-93
2024/03/20 07:39:02;;;;;;;18.52;16.63;;;;;;;;;;5032744;23;20114;-92
2024/03/20 07:41:36;;;;;;;16.80;15.02;;;;;;;;;;5127797;23;20066;-87
2024/03/20 07:44:02;;;;;;;18.95;15.50;;;;;;;;;;5004616;28;20029;-89
2024/03/20 07:46:28;;;;;;;18.33;15.65;;;;;;;;;;5017234;28;20034;-89
2024/03/20 07:48:54;;;;;;;17.33;15.52;;;;;;;;;;4981686;28;20035;-88
2024/03/20 07:54:11;;;;;;;16.67;14.98;;;;;;;;;;4976127;28;20090;-88
2024/03/20 07:56:38;;;;;;;17.55;15.75;;;;;;;;;;4958504;28;20227;-89
2024/03/20 07:59:05;;;;;;;18.73;16.42;;;;;;;;;;4959128;28;20034;-90
2024/03/20 08:01:38;;;;;;;17.33;15.35;;;;;;;;;;4958902;28;20038;-91
2024/03/20 08:04:09;;;;;;;17.90;14.85;;;;;;;;;;4961697;28;20035;-91
2024/03/20 08:06:38;;;;;;;18.00;16.17;;;;;;;;;;5007696;28;20121;-90
2024/03/20 08:09:11;;;;;;;20.98;17.13;;;;;;;;;;4998824;28;20434;-93
2024/03/20 08:11:38;;;;;;;19.42;17.42;;;;;;;;;;5002620;28;20041;-90
2024/03/20 08:14:13;;;;;;;19.70;17.67;;;;;;;;;;5007862;28;20065;-90
2024/03/20 08:16:39;;;;;;;17.25;15.25;;;;;;;;;;4983882;28;20029;-91
2024/03/20 08:19:09;;;;;;;18.05;14.98;;;;;;;;;;4979267;28;20077;-90
2024/03/20 08:21:39;;;;;;;20.20;17.35;;;;;;;;;;4979348;28;20025;-90
2024/03/20 08:24:10;;;;;;;19.45;17.38;;;;;;;;;;5005405;28;20026;-93
2024/03/20 08:26:40;;;;;;;17.38;15.57;;;;;;;;;;5016268;28;20038;-94
2024/03/20 08:29:06;;;;;;;19.10;17.10;;;;;;;;;;4982381;28;20034;-93
2024/03/20 08:31:33;;;;;;;18.33;16.38;;;;;;;;;;4998897;28;20109;-87
2024/03/20 08:33:59;;;;;;;19.58;16.75;;;;;;;;;;4998135;28;20026;-91
2024/03/20 08:39:15;;;;;;;26.70;21.98;;;;;;;;;;4952873;28;20049;-92
2024/03/20 08:41:41;;;;;;;25.83;22.50;;;;;;;;;;4977476;28;20077;-90
2024/03/20 08:44:37;;;;;;;18.95;16.95;;;;;;;;;;4975825;28;20043;-89
2024/03/20 08:47:12;;;;;;;19.00;17.00;;;;;;;;;;4966563;28;20034;-87
2024/03/20 08:52:54;;;;;;;18.85;16.85;;;;;;;;;;4896883;29;20037;-88
2024/03/20 08:55:23;;;;;;;19.15;17.15;;;;;;;;;;4934715;29;20094;-87
2024/03/20 08:57:49;;;;;;;19.67;17.65;;;;;;;;;;4953935;28;20042;-89
2024/03/20 09:00:15;;;;;;;22.02;19.30;;;;;;;;;;4998834;28;20080;-90
2024/03/20 09:02:56;;;;;;;20.55;18.45;;;;;;;;;;5017109;28;20029;-92
2024/03/20 09:08:31;;;;;;;23.08;20.77;;;;;;;;;;4991748;28;20115;-95
2024/03/20 09:30:38;;;;;;;29.98;26.88;;;;;;;;;;5175132;23;20365;-91
2024/03/20 09:42:00;;;;;;;31.33;27.63;;;;;;;;;;4980614;28;20049;-90
2024/03/20 09:47:32;;;;;;;28.50;25.50;;;;;;;;;;5199602;23;20065;-91
2024/03/20 09:49:58;;;;;;;27.23;24.48;;;;;;;;;;5000855;28;20457;-94
2024/03/20 09:52:46;;;;;;;27.35;24.40;;;;;;;;;;4999819;28;20025;-92
2024/03/20 09:55:25;;;;;;;;;;;;;;;;;;;;;
2024/03/20 09:58:21;;;;;;;27.80;24.77;;;;;;;;;;5008152;28;20094;-89
2024/03/20 10:03:39;;;;;;;27.80;24.77;;;;;;;;;;4946280;29;20445;-89
2024/03/20 10:06:05;;;;;;;28.38;25.40;;;;;;;;;;4998162;28;20033;-91
2024/03/20 10:08:33;;;;;;;29.48;26.45;;;;;;;;;;4993134;28;20031;-92
2024/03/20 10:10:59;;;;;;;33.20;29.77;;;;;;;;;;4979716;28;20452;-89
2024/03/20 10:13:25;;;;;;;38.35;34.72;;;;;;;;;;4980349;28;20063;-91
2024/03/20 10:16:13;;;;;;;43.95;39.95;;;;;;;;;;4981541;28;20058;-93
2024/03/20 10:18:59;;;;;;;39.13;35.53;;;;;;;;;;4960534;28;20179;-91
2024/03/20 10:21:44;;;;;;;38.60;34.95;;;;;;;;;;4960580;28;20542;-91
2024/03/20 10:24:17;;;;;;;38.90;35.13;;;;;;;;;;4982076;28;20022;-92
2024/03/20 10:26:43;;;;;;;41.35;37.60;;;;;;;;;;4999727;28;20057;-92
2024/03/20 10:29:13;;;;;;;39.45;35.55;;;;;;;;;;4999212;28;20172;-93
2024/03/20 10:31:43;;;;;;;42.88;38.92;;;;;;;;;;4999980;28;20026;-93
2024/03/20 10:34:14;;;;;;;39.22;35.40;;;;;;;;;;4997839;28;20041;-93
2024/03/20 10:36:56;;;;;;;40.55;36.75;;;;;;;;;;4998697;28;20026;-91
2024/03/20 10:40:00;;;;;;;40.47;36.92;;;;;;;;;;4998703;28;20082;-94
2024/03/20 10:42:35;;;;;;;41.72;37.70;;;;;;;;;;4975653;28;20040;-93
2024/03/20 10:45:21;;;;;;;43.88;39.85;;;;;;;;;;4979535;28;20027;-93
2024/03/20 10:47:48;;;;;;;43.40;39.40;;;;;;;;;;4980987;28;20057;-91
2024/03/20 10:50:21;;;;;;;45.13;40.88;;;;;;;;;;5171983;23;20057;-90
2024/03/20 10:52:53;;;;;;;44.20;39.80;;;;;;;;;;4999868;28;20034;-92
2024/03/20 10:55:33;;;;;;;43.25;39.00;;;;;;;;;;4987217;28;20026;-94
2024/03/20 10:57:59;;;;;;;42.70;38.40;;;;;;;;;;4998381;28;20034;-91
2024/03/20 11:00:30;;;;;;;40.60;36.85;;;;;;;;;;4983658;28;20032;-94
2024/03/20 11:03:34;;;;;;;40.17;36.30;;;;;;;;;;4978192;28;20093;-91
2024/03/20 11:24:24;;;;;;;35.88;31.42;;;;;;;;;;4903038;29;20127;-92
2024/03/20 11:27:04;;;;;;;36.88;33.20;;;;;;;;;;4869912;29;20037;-93
2024/03/20 11:29:31;;;;;;;37.83;34.25;;;;;;;;;;4882315;29;20056;-93
2024/03/20 11:31:58;;;;;;;36.78;33.17;;;;;;;;;;4882743;29;20052;-93
2024/03/20 11:34:38;;;;;;;35.20;31.75;;;;;;;;;;4890893;29;20066;-93
2024/03/20 11:37:04;;;;;;;34.00;30.58;;;;;;;;;;4926417;29;20575;-92
2024/03/20 11:39:39;;;;;;;33.80;30.35;;;;;;;;;;4938854;29;20043;-93
2024/03/20 11:42:05;;;;;;;36.65;33.03;;;;;;;;;;4953873;28;20030;-93
2024/03/20 11:44:32;;;;;;;35.17;31.58;;;;;;;;;;4960279;28;20027;-91
2024/03/20 11:47:10;;;;;;;35.50;31.98;;;;;;;;;;4967367;28;20032;-90
2024/03/20 11:49:43;;;;;;;35.38;31.85;;;;;;;;;;4962666;28;20037;-90
2024/03/20 11:52:32;;;;;;;36.22;32.50;;;;;;;;;;4949266;29;20024;-92
2024/03/20 11:55:14;;;;;;;34.40;30.92;;;;;;;;;;4921125;29;20036;-94
2024/03/20 11:58:03;;;;;;;36.90;33.10;;;;;;;;;;4934839;29;20246;-94
2024/03/20 12:00:47;;;;;;;35.30;30.63;;;;;;;;;;4919436;29;20036;-94
2024/03/20 12:03:25;;;;;;;32.13;28.83;;;;;;;;;;4915318;29;20036;-94
2024/03/20 12:06:30;;;;;;;34.08;30.58;;;;;;;;;;4901269;29;20458;-92
2024/03/20 12:09:15;;;;;;;35.30;31.70;;;;;;;;;;4841885;29;20109;-94
2024/03/20 12:17:39;;;;;;;36.08;32.40;;;;;;;;;;4841884;29;20052;-92
2024/03/20 12:20:13;;;;;;;36.55;32.85;;;;;;;;;;4878945;29;20036;-91
2024/03/20 12:23:07;;;;;;;36.05;32.55;;;;;;;;;;4901996;29;20052;-93
2024/03/20 12:28:46;;;;;;;36.47;32.78;;;;;;;;;;5006057;23;20061;-92
2024/03/20 12:31:17;;;;;;;40.53;36.63;;;;;;;;;;4958254;28;20077;-95
2024/03/20 12:39:30;;;;;;;38.90;34.72;;;;;;;;;;5079248;23;20462;-93
2024/03/20 12:42:07;;;;;;;37.25;33.45;;;;;;;;;;4981860;28;20023;-92
2024/03/20 12:44:36;;;;;;;37.00;33.08;;;;;;;;;;4983315;28;20030;-91
2024/03/20 12:49:55;;;;;;;38.40;34.60;;;;;;;;;;5004444;28;20117;-92
2024/03/20 12:52:21;;;;;;;36.30;32.08;;;;;;;;;;5005775;28;20040;-89
2024/03/20 12:54:54;;;;;;;38.72;34.67;;;;;;;;;;5028853;28;20034;-91
2024/03/20 12:57:21;;;;;;;41.38;37.22;;;;;;;;;;5004481;28;20030;-90
2024/03/20 13:00:16;;;;;;;40.08;35.95;;;;;;;;;;4997727;28;20407;-93
2024/03/20 13:02:55;;;;;;;37.78;34.08;;;;;;;;;;4991830;28;20471;-91
2024/03/20 13:05:36;;;;;;;36.97;33.08;;;;;;;;;;4986787;28;20022;-94
2024/03/20 13:08:28;;;;;;;39.15;35.20;;;;;;;;;;5000771;28;20033;-93
2024/03/20 13:11:05;;;;;;;38.92;34.92;;;;;;;;;;4993103;28;20387;-94
2024/03/20 13:13:58;;;;;;;38.60;34.80;;;;;;;;;;4999904;28;20124;-96
2024/03/20 13:16:23;;;;;;;38.95;35.10;;;;;;;;;;4996807;28;20045;-94
2024/03/20 13:19:13;;;;;;;36.65;32.58;;;;;;;;;;4986855;28;20049;-94
2024/03/20 13:21:40;;;;;;;38.33;34.25;;;;;;;;;;4997920;28;20399;-89
2024/03/20 13:24:28;;;;;;;38.65;34.72;;;;;;;;;;4958861;28;20122;-94
2024/03/20 13:26:57;;;;;;;37.17;32.40;;;;;;;;;;4941569;29;20046;-96
2024/03/20 13:29:33;;;;;;;39.90;35.20;;;;;;;;;;4952401;28;20037;-91
2024/03/20 13:32:03;;;;;;;38.53;34.72;;;;;;;;;;4966530;29;20111;-88
2024/03/20 13:34:30;;;;;;;39.88;34.15;;;;;;;;;;4949305;29;20035;-93
2024/03/20 13:37:26;;;;;;;39.92;33.28;;;;;;;;;;4941120;29;20476;-93
2024/03/20 13:40:06;;;;;;;38.10;34.20;;;;;;;;;;4941446;29;20493;-89
2024/03/20 13:42:55;;;;;;;37.63;33.60;;;;;;;;;;4928039;29;20357;-92
2024/03/20 13:45:37;;;;;;;38.58;33.88;;;;;;;;;;4956434;29;20042;-93
2024/03/20 13:48:04;;;;;;;38.33;34.35;;;;;;;;;;4941316;29;20087;-92
2024/03/20 13:50:36;;;;;;;37.80;33.88;;;;;;;;;;4940795;29;20403;-93
2024/03/20 13:53:11;;;;;;;37.10;33.03;;;;;;;;;;4941821;29;20027;-92
2024/03/20 13:56:02;;;;;;;37.28;32.95;;;;;;;;;;4966157;28;20034;-93
2024/03/20 13:58:44;;;;;;;40.72;36.72;;;;;;;;;;4967293;28;20020;-88
2024/03/20 14:01:38;;;;;;;34.78;31.17;;;;;;;;;;4962077;28;20098;-90
2024/03/20 14:13:01;;;;;;;35.55;31.75;;;;;;;;;;4946854;29;20035;-96
2024/03/20 14:15:34;;;;;;;34.60;30.60;;;;;;;;;;4958988;29;20035;-93
2024/03/20 14:18:03;;;;;;;36.90;33.20;;;;;;;;;;4943625;29;20039;-95
2024/03/20 14:23:38;;;;;;;37.55;32.72;;;;;;;;;;4970651;28;20092;-94
2024/03/20 14:26:21;;;;;;;35.80;31.90;;;;;;;;;;4978868;28;20042;-90
2024/03/20 14:29:12;;;;;;;35.33;31.37;;;;;;;;;;5005694;28;20092;-93
2024/03/20 14:31:44;;;;;;;36.22;32.38;;;;;;;;;;4985178;28;20026;-93
2024/03/20 14:34:33;;;;;;;35.95;32.10;;;;;;;;;;5001020;28;20033;-95
2024/03/20 14:39:51;;;;;;;35.58;31.80;;;;;;;;;;4938004;29;20040;-88
2024/03/20 14:45:33;;;;;;;36.67;32.88;;;;;;;;;;4918096;29;20544;-89
2024/03/20 14:48:12;;;;;;;35.03;31.25;;;;;;;;;;4904904;29;20051;-88
2024/03/20 14:50:40;;;;;;;34.08;30.63;;;;;;;;;;4898809;29;20055;-88
2024/03/20 14:53:16;;;;;;;35.00;30.02;;;;;;;;;;4898524;29;20036;-88
2024/03/20 14:58:37;;;;;;;34.55;29.95;;;;;;;;;;4906776;29;20044;-89
2024/03/20 15:01:04;;;;;;;35.05;31.52;;;;;;;;;;4871059;29;20032;-89
2024/03/20 15:03:33;;;;;;;33.85;30.35;;;;;;;;;;4921064;29;20516;-88
2024/03/20 15:06:00;;;;;;;34.88;31.17;;;;;;;;;;4936418;28;20058;-89
2024/03/20 15:08:26;;;;;;;33.42;28.70;;;;;;;;;;4943384;29;20023;-90
2024/03/20 15:10:58;;;;;;;33.90;30.13;;;;;;;;;;4946901;28;20035;-88
2024/03/20 15:13:25;;;;;;;34.77;30.97;;;;;;;;;;4966230;28;20058;-89
2024/03/20 15:15:51;;;;;;;32.30;28.77;;;;;;;;;;4991137;28;20281;-89
2024/03/20 15:18:17;;;;;;;35.33;29.30;;;;;;;;;;4985215;28;20031;-89
2024/03/20 15:20:43;;;;;;;34.53;29.70;;;;;;;;;;4979019;28;20031;-89
2024/03/20 15:23:14;;;;;;;34.58;29.25;;;;;;;;;;4979040;28;20053;-89
2024/03/20 15:25:40;;;;;;;35.80;29.83;;;;;;;;;;4978741;28;20030;-91
2024/03/20 15:28:06;;;;;;;32.58;29.10;;;;;;;;;;4978663;28;20027;-88
2024/03/20 15:30:32;;;;;;;34.13;30.02;;;;;;;;;;4978343;28;20118;-89
2024/03/20 15:32:58;;;;;;;32.50;29.00;;;;;;;;;;4978316;28;20077;-88
2024/03/20 15:35:25;;;;;;;33.30;29.80;;;;;;;;;;4996741;28;20026;-90
2024/03/20 15:37:51;;;;;;;35.28;29.45;;;;;;;;;;4984128;28;20054;-89
2024/03/20 15:40:17;;;;;;;32.65;27.85;;;;;;;;;;4978774;28;20467;-87
2024/03/20 15:42:43;;;;;;;32.00;27.35;;;;;;;;;;4978173;28;20026;-87
2024/03/20 15:45:10;;;;;;;32.92;24.42;;;;;;;;;;4978237;28;20032;-89
2024/03/20 15:47:38;;;;;;;32.10;28.70;;;;;;;;;;4978513;28;20057;-89
2024/03/20 15:50:06;;;;;;;29.65;26.50;;;;;;;;;;4962423;28;20050;-89
2024/03/20 15:52:32;;;;;;;32.85;29.38;;;;;;;;;;4978450;28;20026;-87
2024/03/20 15:54:59;;;;;;;32.92;26.85;;;;;;;;;;4978045;28;20080;-87
2024/03/20 15:57:25;;;;;;;32.80;29.10;;;;;;;;;;4980066;28;20033;-89
2024/03/20 15:59:55;;;;;;;31.88;27.27;;;;;;;;;;4983555;28;20428;-91
2024/03/20 16:02:24;;;;;;;33.53;26.42;;;;;;;;;;4979712;28;20411;-91
2024/03/20 16:04:53;;;;;;;31.38;27.98;;;;;;;;;;4978479;28;20030;-90
2024/03/20 16:07:19;;;;;;;29.38;23.85;;;;;;;;;;4979567;28;20022;-91
2024/03/20 16:09:46;;;;;;;34.40;30.13;;;;;;;;;;4978842;28;20026;-91
2024/03/20 16:12:14;;;;;;;32.17;27.65;;;;;;;;;;4979527;28;20034;-91
2024/03/20 16:14:40;;;;;;;31.70;24.73;;;;;;;;;;4978746;28;20023;-89
2024/03/20 16:17:09;;;;;;;29.52;24.27;;;;;;;;;;4979952;28;20054;-90
2024/03/20 16:19:35;;;;;;;27.58;22.23;;;;;;;;;;4975008;28;20109;-90
2024/03/20 16:22:01;;;;;;;28.00;21.17;;;;;;;;;;4961927;28;20125;-91
2024/03/20 16:24:27;;;;;;;28.63;21.35;;;;;;;;;;4978800;28;20129;-90